createdAt,value
2022-07-25T00:01:45.786Z,14.25
2022-07-25T00:04:14.411Z,14.25
2022-07-25T00:06:42.694Z,15.25
2022-07-25T00:09:09.933Z,13.25
2022-07-25T00:11:36.925Z,13.00
2022-07-25T00:14:04.401Z,15.50
2022-07-25T00:16:31.545Z,14.75
2022-07-25T00:18:58.323Z,14.00
2022-07-25T00:21:25.206Z,15.00
2022-07-25T00:23:51.897Z,14.25
2022-07-25T00:26:18.613Z,12.25
2022-07-25T00:28:45.261Z,16.00
2022-07-25T00:31:11.961Z,13.50
2022-07-25T00:33:40.288Z,15.75
2022-07-25T00:36:10.444Z,12.75
2022-07-25T00:38:37.155Z,14.75
2022-07-25T00:41:04.764Z,13.50
2022-07-25T00:43:32.034Z,21.25
2022-07-25T00:45:59.516Z,14.75
2022-07-25T00:48:29.649Z,16.75
2022-07-25T00:50:57.177Z,15.75
2022-07-25T00:53:25.043Z,23.50
2022-07-25T00:55:52.034Z,19.00
2022-07-25T00:58:19.063Z,15.25
2022-07-25T01:00:46.061Z,13.50
2022-07-25T01:03:13.018Z,18.75
2022-07-25T01:05:39.809Z,17.25
2022-07-25T01:08:06.792Z,20.00
2022-07-25T01:10:34.074Z,20.75
2022-07-25T01:13:01.178Z,20.00
2022-07-25T01:15:28.122Z,19.75
2022-07-25T01:17:55.213Z,20.50
2022-07-25T01:20:26.957Z,18.00
2022-07-25T01:22:54.378Z,18.25
2022-07-25T01:25:21.694Z,25.00
2022-07-25T01:27:54.677Z,17.75
2022-07-25T01:30:24.352Z,21.25
2022-07-25T01:32:51.298Z,22.75
2022-07-25T01:35:18.231Z,23.50
2022-07-25T01:37:46.003Z,22.00
2022-07-25T01:40:14.078Z,24.50
2022-07-25T01:42:41.458Z,24.75
2022-07-25T01:45:08.874Z,18.50
2022-07-25T01:47:35.600Z,21.00
2022-07-25T01:50:02.305Z,21.00
2022-07-25T01:52:29.052Z,19.75
2022-07-25T01:54:55.766Z,23.25
2022-07-25T01:57:25.666Z,19.00
2022-07-25T01:59:57.679Z,25.00
2022-07-25T02:02:24.506Z,22.00
2022-07-25T02:04:51.303Z,20.50
2022-07-25T02:07:18.072Z,22.50
2022-07-25T02:09:44.768Z,20.50
2022-07-25T02:12:11.458Z,25.25
2022-07-25T02:14:38.340Z,24.00
2022-07-25T02:17:05.313Z,19.25
2022-07-25T02:19:32.508Z,25.25
2022-07-25T02:21:59.171Z,26.75
2022-07-25T02:24:25.835Z,23.25
2022-07-25T02:26:52.599Z,23.50
2022-07-25T02:29:19.347Z,25.75
2022-07-25T02:31:48.766Z,22.50
2022-07-25T02:34:15.571Z,21.00
2022-07-25T02:36:42.241Z,25.00
2022-07-25T02:39:08.957Z,21.50
2022-07-25T02:41:35.638Z,22.25
2022-07-25T02:44:02.394Z,19.50
2022-07-25T02:46:29.220Z,21.25
2022-07-25T02:48:55.988Z,21.25
2022-07-25T02:51:22.858Z,21.00
2022-07-25T02:53:57.910Z,24.50
2022-07-25T02:56:25.875Z,21.75
2022-07-25T02:58:53.596Z,19.00
2022-07-25T03:01:20.345Z,18.75
2022-07-25T03:03:47.078Z,20.50
2022-07-25T03:06:13.784Z,19.25
2022-07-25T03:08:40.432Z,18.75
2022-07-25T03:11:07.080Z,20.75
2022-07-25T03:13:33.739Z,19.50
2022-07-25T03:16:00.895Z,19.00
2022-07-25T03:18:27.578Z,17.75
2022-07-25T03:20:54.270Z,20.25
2022-07-25T03:23:21.107Z,21.00
2022-07-25T03:25:47.984Z,20.25
2022-07-25T03:28:14.654Z,16.75
2022-07-25T03:30:41.307Z,14.75
2022-07-25T03:33:07.985Z,17.25
2022-07-25T03:35:35.313Z,16.50
2022-07-25T03:38:02.254Z,21.00
2022-07-25T03:40:29.106Z,19.00
2022-07-25T03:42:55.742Z,18.50
2022-07-25T03:45:22.493Z,23.00
2022-07-25T03:47:50.321Z,19.50
2022-07-25T03:50:17.040Z,17.50
2022-07-25T03:52:43.709Z,16.50
2022-07-25T03:55:11.340Z,16.00
2022-07-25T03:57:39.303Z,15.75
2022-07-25T04:00:08.235Z,19.50
2022-07-25T04:02:35.363Z,15.75
2022-07-25T04:05:02.049Z,15.50
2022-07-25T04:07:28.699Z,21.50
2022-07-25T04:09:55.339Z,11.50
2022-07-25T04:12:22.046Z,17.75
2022-07-25T04:14:48.784Z,18.00
2022-07-25T04:17:15.473Z,16.50
2022-07-25T04:19:42.225Z,15.25
2022-07-25T04:22:09.315Z,17.75
2022-07-25T04:24:36.011Z,16.50
2022-07-25T04:27:02.676Z,14.50
2022-07-25T04:29:29.403Z,18.00
2022-07-25T04:31:56.163Z,17.00
2022-07-25T04:34:22.831Z,14.50
2022-07-25T04:36:49.701Z,14.25
2022-07-25T04:39:16.502Z,18.25
2022-07-25T04:41:43.533Z,18.25
2022-07-25T04:44:10.246Z,16.00
2022-07-25T04:46:37.064Z,16.75
2022-07-25T04:49:03.969Z,16.50
2022-07-25T04:51:30.672Z,15.75
2022-07-25T04:53:57.327Z,12.75
2022-07-25T04:56:24.010Z,14.25
2022-07-25T04:58:50.733Z,16.50
2022-07-25T05:01:17.481Z,14.75
2022-07-25T05:03:50.127Z,18.00
2022-07-25T05:06:17.353Z,16.00
2022-07-25T05:08:43.988Z,21.50
2022-07-25T05:11:10.629Z,13.50
2022-07-25T05:13:37.289Z,15.00
2022-07-25T05:16:04.236Z,16.75
2022-07-25T05:18:31.113Z,21.25
2022-07-25T05:20:57.768Z,16.25
2022-07-25T05:23:24.461Z,18.00
2022-07-25T05:25:51.199Z,20.00
2022-07-25T05:28:17.989Z,15.75
2022-07-25T05:30:44.738Z,16.00
2022-07-25T05:33:11.397Z,15.25
2022-07-25T05:35:38.112Z,13.25
2022-07-25T05:38:05.105Z,16.50
2022-07-25T05:40:31.865Z,18.25
2022-07-25T05:43:02.982Z,17.25
2022-07-25T05:45:30.090Z,17.50
2022-07-25T05:47:56.845Z,18.50
2022-07-25T05:50:23.716Z,13.25
2022-07-25T05:52:50.407Z,16.00
2022-07-25T05:55:17.677Z,12.00
2022-07-25T05:57:44.397Z,16.50
2022-07-25T06:00:11.549Z,12.25
2022-07-25T06:02:38.454Z,12.25
2022-07-25T06:05:05.493Z,11.50
2022-07-25T06:07:32.233Z,12.00
2022-07-25T06:09:58.956Z,12.00
2022-07-25T06:12:25.590Z,14.25
2022-07-25T06:14:52.481Z,9.25
2022-07-25T06:17:19.136Z,10.75
2022-07-25T06:19:45.791Z,13.00
2022-07-25T06:22:14.682Z,12.75
2022-07-25T06:24:41.496Z,11.25
2022-07-25T06:27:08.978Z,11.00
2022-07-25T06:29:35.775Z,9.75
2022-07-25T06:32:02.593Z,11.00
2022-07-25T06:34:29.597Z,12.75
2022-07-25T06:36:57.695Z,13.25
2022-07-25T06:39:25.358Z,10.25
2022-07-25T06:41:52.546Z,17.75
2022-07-25T06:44:19.282Z,14.00
2022-07-25T06:46:46.062Z,14.00
2022-07-25T06:49:12.899Z,15.00
2022-07-25T06:51:39.583Z,11.00
2022-07-25T06:54:07.353Z,16.25
2022-07-25T06:56:34.688Z,11.75
2022-07-25T06:59:01.432Z,13.00
2022-07-25T07:01:28.213Z,12.00
2022-07-25T07:03:55.057Z,14.00
2022-07-25T07:06:21.797Z,13.50
2022-07-25T07:08:48.533Z,13.00
2022-07-25T07:11:16.811Z,11.50
2022-07-25T07:13:43.582Z,16.25
2022-07-25T07:16:10.927Z,10.00
2022-07-25T07:18:38.348Z,10.00
2022-07-25T07:21:05.927Z,17.50
2022-07-25T07:23:33.016Z,14.25
2022-07-25T07:25:59.849Z,12.25
2022-07-25T07:28:26.919Z,11.75
2022-07-25T07:33:40.532Z,11.75
2022-07-25T07:36:07.486Z,15.25
2022-07-25T07:38:34.668Z,14.75
2022-07-25T07:41:01.329Z,11.00
2022-07-25T07:43:30.517Z,14.75
2022-07-25T07:46:01.070Z,13.50
2022-07-25T07:48:29.488Z,12.25
2022-07-25T07:50:56.814Z,13.75
2022-07-25T07:53:43.451Z,10.75
2022-07-25T07:56:10.468Z,14.00
2022-07-25T07:58:37.113Z,12.25
2022-07-25T08:01:04.444Z,12.25
2022-07-25T08:03:31.133Z,9.75
2022-07-25T08:05:58.046Z,11.25
2022-07-25T08:08:30.630Z,13.00
2022-07-25T08:10:59.037Z,12.75
2022-07-25T08:13:31.368Z,15.25
2022-07-25T08:16:00.357Z,10.50
2022-07-25T08:18:30.125Z,11.75
2022-07-25T08:20:56.939Z,11.00
2022-07-25T08:23:25.443Z,12.75
2022-07-25T08:25:52.231Z,11.75
2022-07-25T08:28:19.569Z,13.75
2022-07-25T08:30:46.735Z,14.75
2022-07-25T08:33:16.314Z,13.50
2022-07-25T08:35:49.022Z,12.75
2022-07-25T08:38:15.751Z,13.00
2022-07-25T08:40:42.488Z,14.25
2022-07-25T08:43:16.501Z,12.25
2022-07-25T08:45:48.523Z,15.25
2022-07-25T08:48:18.900Z,10.25
2022-07-25T08:50:47.213Z,11.50
2022-07-25T08:53:32.811Z,11.00
2022-07-25T08:56:00.615Z,10.25
2022-07-25T08:58:27.326Z,8.75
2022-07-25T09:00:54.111Z,11.25
2022-07-25T09:03:20.901Z,9.25
2022-07-25T09:05:47.884Z,11.00
2022-07-25T09:08:17.567Z,9.00
2022-07-25T09:10:49.648Z,12.50
2022-07-25T09:13:18.501Z,10.00
2022-07-25T09:15:47.017Z,12.50
2022-07-25T09:18:15.942Z,13.50
2022-07-25T09:20:43.662Z,13.00
2022-07-25T09:23:12.877Z,11.75
2022-07-25T09:25:39.895Z,12.50
2022-07-25T09:28:24.511Z,14.25
2022-07-25T09:30:59.469Z,15.00
2022-07-25T09:33:27.635Z,14.00
2022-07-25T09:35:55.838Z,14.00
2022-07-25T09:38:23.796Z,10.50
2022-07-25T09:40:59.070Z,11.00
2022-07-25T09:43:43.539Z,10.75
2022-07-25T09:46:12.154Z,12.25
2022-07-25T09:48:40.954Z,12.00
2022-07-25T09:51:07.795Z,12.50
2022-07-25T09:53:34.928Z,12.00
2022-07-25T09:56:02.113Z,11.25
2022-07-25T09:58:29.925Z,13.75
2022-07-25T10:01:01.639Z,8.00
2022-07-25T10:03:39.617Z,10.50
2022-07-25T10:06:22.704Z,9.75
2022-07-25T10:08:50.553Z,14.25
2022-07-25T10:11:21.024Z,9.50
2022-07-25T10:13:48.435Z,9.50
2022-07-25T10:16:18.079Z,13.25
2022-07-25T10:18:49.742Z,11.00
2022-07-25T10:21:26.914Z,14.50
2022-07-25T10:24:07.644Z,15.75
2022-07-25T10:26:40.481Z,11.50
2022-07-25T10:29:12.033Z,12.00
2022-07-25T10:31:50.023Z,12.50
2022-07-25T10:34:29.123Z,12.50
2022-07-25T10:36:57.408Z,13.25
2022-07-25T10:39:24.348Z,12.75
2022-07-25T10:42:02.966Z,13.25
2022-07-25T10:44:41.619Z,12.25
2022-07-25T10:47:14.253Z,15.00
2022-07-25T10:50:29.804Z,14.00
2022-07-25T10:52:41.647Z,10.75
2022-07-25T10:55:08.980Z,12.00
2022-07-25T10:57:35.808Z,11.75
2022-07-25T11:00:07.764Z,11.50
2022-07-25T11:02:34.602Z,11.00
2022-07-25T11:05:03.255Z,14.00
2022-07-25T11:07:36.228Z,10.75
2022-07-25T11:10:05.239Z,12.00
2022-07-25T11:12:32.536Z,9.75
2022-07-25T11:15:07.698Z,12.75
2022-07-25T11:17:34.800Z,14.75
2022-07-25T11:20:01.421Z,13.00
2022-07-25T11:22:29.772Z,12.75
2022-07-25T11:24:57.864Z,11.75
2022-07-25T11:27:24.593Z,12.75
2022-07-25T11:29:51.627Z,12.00
2022-07-25T11:32:18.668Z,11.75
2022-07-25T11:34:52.369Z,10.50
2022-07-25T11:37:20.070Z,11.25
2022-07-25T11:39:48.618Z,10.50
2022-07-25T11:42:19.474Z,11.75
2022-07-25T11:44:51.997Z,11.00
2022-07-25T11:47:30.938Z,7.75
2022-07-25T11:50:03.149Z,7.25
2022-07-25T11:52:34.982Z,10.25
2022-07-25T11:55:10.471Z,11.25
2022-07-25T11:57:39.985Z,11.25
2022-07-25T12:00:17.382Z,10.50
2022-07-25T12:02:45.078Z,9.00
2022-07-25T12:05:14.527Z,9.50
2022-07-25T12:07:44.774Z,12.00
2022-07-25T12:10:15.795Z,7.00
2022-07-25T12:12:51.823Z,7.25
2022-07-25T12:15:21.555Z,8.00
2022-07-25T12:17:49.551Z,10.00
2022-07-25T12:20:19.152Z,8.25
2022-07-25T12:22:46.509Z,7.00
2022-07-25T12:25:13.285Z,6.00
2022-07-25T12:27:40.870Z,7.50
2022-07-25T12:30:08.613Z,8.00
2022-07-25T12:32:36.488Z,7.25
2022-07-25T12:35:05.489Z,9.75
2022-07-25T12:37:32.654Z,8.00
2022-07-25T12:39:59.566Z,11.75
2022-07-25T12:42:27.252Z,7.25
2022-07-25T12:44:54.001Z,7.25
2022-07-25T12:47:21.357Z,10.00
2022-07-25T12:49:48.015Z,8.00
2022-07-25T12:52:14.745Z,5.75
2022-07-25T12:54:41.761Z,8.25
2022-07-25T12:57:10.609Z,9.50
2022-07-25T12:59:37.509Z,6.50
2022-07-25T13:02:04.899Z,8.25
2022-07-25T13:04:31.724Z,8.25
2022-07-25T13:06:59.218Z,6.00
2022-07-25T13:09:26.829Z,8.00
2022-07-25T13:11:54.132Z,7.50
2022-07-25T13:14:21.308Z,7.75
2022-07-25T13:16:48.559Z,6.75
2022-07-25T13:19:16.103Z,11.25
2022-07-25T13:21:43.622Z,8.50
2022-07-25T13:24:11.177Z,6.50
2022-07-25T13:26:38.729Z,10.25
2022-07-25T13:29:11.727Z,7.50
2022-07-25T13:31:41.268Z,7.75
2022-07-25T13:34:08.976Z,10.50
2022-07-25T13:36:37.374Z,8.75
2022-07-25T13:39:05.818Z,6.00
2022-07-25T13:41:32.789Z,9.75
2022-07-25T13:43:59.686Z,9.00
2022-07-25T13:46:26.590Z,7.75
2022-07-25T13:48:54.793Z,10.25
2022-07-25T13:51:21.463Z,8.00
2022-07-25T13:53:48.539Z,10.75
2022-07-25T13:56:15.555Z,12.25
2022-07-25T13:58:43.212Z,10.50
2022-07-25T14:01:11.738Z,8.25
2022-07-25T14:03:39.055Z,8.25
2022-07-25T14:06:08.947Z,10.25
2022-07-25T14:08:35.609Z,7.00
2022-07-25T14:11:02.501Z,7.75
2022-07-25T14:13:29.157Z,9.50
2022-07-25T14:15:55.852Z,8.50
2022-07-25T14:18:22.602Z,8.00
2022-07-25T14:20:50.245Z,9.50
2022-07-25T14:23:17.234Z,9.00
2022-07-25T14:25:43.894Z,10.75
2022-07-25T14:28:10.583Z,9.25
2022-07-25T14:30:37.928Z,10.00
2022-07-25T14:33:04.594Z,11.00
2022-07-25T14:35:32.734Z,10.00
2022-07-25T14:37:59.785Z,10.50
2022-07-25T14:40:26.606Z,9.50
2022-07-25T14:42:53.382Z,8.00
2022-07-25T14:45:22.020Z,9.25
2022-07-25T14:47:48.728Z,8.75
2022-07-25T14:50:15.662Z,8.25
2022-07-25T14:52:42.389Z,12.50
2022-07-25T14:55:09.659Z,10.50
2022-07-25T14:57:36.493Z,8.25
2022-07-25T15:00:05.510Z,9.50
2022-07-25T15:02:32.441Z,7.50
2022-07-25T15:04:59.207Z,9.50
2022-07-25T15:07:25.969Z,8.75
2022-07-25T15:09:52.663Z,9.00
2022-07-25T15:12:20.881Z,9.75
2022-07-25T15:14:48.777Z,7.00
2022-07-25T15:17:15.497Z,7.50
2022-07-25T15:19:42.167Z,10.25
2022-07-25T15:22:08.805Z,11.50
2022-07-25T15:24:50.138Z,8.00
2022-07-25T15:27:22.133Z,7.00
2022-07-25T15:29:48.845Z,9.25
2022-07-25T15:32:15.518Z,7.00
2022-07-25T15:34:42.240Z,9.00
2022-07-25T15:37:09.816Z,8.50
2022-07-25T15:39:36.473Z,11.25
2022-07-25T15:42:03.277Z,7.50
2022-07-25T15:44:32.660Z,9.25
2022-07-25T15:46:59.507Z,6.75
2022-07-25T15:49:26.357Z,7.75
2022-07-25T15:51:53.062Z,7.25
2022-07-25T15:54:19.724Z,8.00
2022-07-25T15:56:46.464Z,10.00
2022-07-25T15:59:13.750Z,10.00
2022-07-25T16:01:40.488Z,6.50
2022-07-25T16:04:07.307Z,8.50
2022-07-25T16:06:34.405Z,7.00
2022-07-25T16:09:01.101Z,8.50
2022-07-25T16:11:27.851Z,7.75
2022-07-25T16:13:54.869Z,7.50
2022-07-25T16:16:25.814Z,10.25
2022-07-25T16:18:52.659Z,12.50
2022-07-25T16:21:19.364Z,11.25
2022-07-25T16:23:46.052Z,10.50
2022-07-25T16:26:13.232Z,8.00
2022-07-25T16:28:40.637Z,9.50
2022-07-25T16:31:07.492Z,9.75
2022-07-25T16:33:34.315Z,10.25
2022-07-25T16:36:01.276Z,9.00
2022-07-25T16:38:28.979Z,8.50
2022-07-25T16:40:55.970Z,8.50
2022-07-25T16:43:22.853Z,7.00
2022-07-25T16:45:49.500Z,8.00
2022-07-25T16:48:16.187Z,11.50
2022-07-25T16:50:42.908Z,7.25
2022-07-25T16:53:09.732Z,10.00
2022-07-25T16:55:36.470Z,9.75
2022-07-25T16:58:03.346Z,10.75
2022-07-25T17:00:30.250Z,6.50
2022-07-25T17:02:57.113Z,9.00
2022-07-25T17:05:23.887Z,6.50
2022-07-25T17:07:55.725Z,7.25
2022-07-25T17:10:25.952Z,2.75
2022-07-25T17:12:52.601Z,6.00
2022-07-25T17:15:20.236Z,9.00
2022-07-25T17:17:46.914Z,5.25
2022-07-25T17:20:14.567Z,7.75
2022-07-25T17:22:41.253Z,5.00
2022-07-25T17:25:08.309Z,5.75
2022-07-25T17:27:35.462Z,9.00
2022-07-25T17:30:02.303Z,5.75
2022-07-25T17:32:30.111Z,6.75
2022-07-25T17:34:57.835Z,6.25
2022-07-25T17:37:26.517Z,5.50
2022-07-25T17:39:53.662Z,5.00
2022-07-25T17:42:23.973Z,5.50
2022-07-25T17:44:52.083Z,7.50
2022-07-25T17:47:18.928Z,7.25
2022-07-25T17:49:46.032Z,6.50
2022-07-25T17:52:12.718Z,6.25
2022-07-25T17:54:42.396Z,4.50
2022-07-25T17:57:09.052Z,7.00
2022-07-25T17:59:36.087Z,6.50
2022-07-25T18:02:03.443Z,5.50
2022-07-25T18:04:30.333Z,5.00
2022-07-25T18:06:57.048Z,6.00
2022-07-25T18:09:24.358Z,6.50
2022-07-25T18:11:51.621Z,8.00
2022-07-25T18:14:18.328Z,7.75
2022-07-25T18:16:45.663Z,6.75
2022-07-25T18:19:13.029Z,10.50
2022-07-25T18:21:39.708Z,9.75
2022-07-25T18:24:07.051Z,10.50
2022-07-25T18:26:34.640Z,8.50
2022-07-25T18:29:01.529Z,8.50
2022-07-25T18:31:28.550Z,8.00
2022-07-25T18:33:55.317Z,7.25
2022-07-25T18:36:22.053Z,8.00
2022-07-25T18:38:48.941Z,6.25
2022-07-25T18:41:31.362Z,8.00
2022-07-25T18:43:58.292Z,7.50
2022-07-25T18:46:25.706Z,6.75
2022-07-25T18:48:53.768Z,7.00
2022-07-25T18:51:20.664Z,6.00
2022-07-25T18:53:48.630Z,8.50
2022-07-25T18:56:16.203Z,3.25
2022-07-25T18:58:43.422Z,5.00
2022-07-25T19:01:13.330Z,4.00
2022-07-25T19:03:40.860Z,4.25
2022-07-25T19:06:10.650Z,6.00
2022-07-25T19:08:38.014Z,4.00
2022-07-25T19:11:05.832Z,6.00
2022-07-25T19:13:51.012Z,6.25
2022-07-25T19:16:18.750Z,4.25
2022-07-25T19:18:45.592Z,3.25
2022-07-25T19:21:12.309Z,4.00
2022-07-25T19:23:39.026Z,5.00
2022-07-25T19:26:06.397Z,4.50
2022-07-25T19:28:33.183Z,3.00
2022-07-25T19:30:59.859Z,2.00
2022-07-25T19:33:34.917Z,4.25
2022-07-25T19:36:04.222Z,5.25
2022-07-25T19:38:31.136Z,5.50
2022-07-25T19:40:57.828Z,1.25
2022-07-25T19:43:24.823Z,1.25
2022-07-25T19:45:52.409Z,4.00
2022-07-25T19:48:19.115Z,4.00
2022-07-25T19:50:45.811Z,3.00
2022-07-25T19:53:12.534Z,2.00
2022-07-25T19:55:39.196Z,2.00
2022-07-25T19:58:08.437Z,1.25
2022-07-25T20:00:35.215Z,1.25
2022-07-25T20:03:02.012Z,1.00
2022-07-25T20:05:28.723Z,1.00
2022-07-25T20:07:55.464Z,1.00
2022-07-25T20:10:23.846Z,2.75
2022-07-25T20:12:50.677Z,0.25
2022-07-25T20:15:17.430Z,1.00
2022-07-25T20:17:44.158Z,2.00
2022-07-25T20:20:11.222Z,0.00
2022-07-25T20:22:37.947Z,1.50
2022-07-25T20:25:10.714Z,1.75
2022-07-25T20:27:37.719Z,1.25
2022-07-25T20:30:09.131Z,0.00
2022-07-25T20:32:36.209Z,1.00
2022-07-25T20:35:06.235Z,1.00
2022-07-25T20:37:32.883Z,2.00
2022-07-25T20:39:59.620Z,0.25
2022-07-25T20:42:26.460Z,0.00
2022-07-25T20:44:53.163Z,1.00
2022-07-25T20:47:19.870Z,0.00
2022-07-25T20:49:46.622Z,0.00
2022-07-25T20:52:13.497Z,0.00
2022-07-25T20:54:40.435Z,0.00
2022-07-25T20:57:07.200Z,0.00
2022-07-25T20:59:33.852Z,0.00
2022-07-25T21:02:00.645Z,0.00
2022-07-25T21:04:27.459Z,0.50
2022-07-25T21:06:56.794Z,1.00
2022-07-25T21:09:23.864Z,0.00
2022-07-25T21:11:50.556Z,0.00
2022-07-25T21:14:17.263Z,0.00
2022-07-25T21:16:44.075Z,0.00
2022-07-25T21:19:11.237Z,0.50
2022-07-25T21:21:38.134Z,0.00
2022-07-25T21:24:06.559Z,0.00
2022-07-25T21:26:33.769Z,0.00
2022-07-25T21:29:00.452Z,0.00
2022-07-25T21:31:27.288Z,0.00
2022-07-25T21:33:53.993Z,0.00
2022-07-25T21:36:20.638Z,0.25
2022-07-25T21:38:47.301Z,0.25
2022-07-25T21:41:13.977Z,0.25
2022-07-25T21:43:41.063Z,0.75
2022-07-25T21:46:07.805Z,0.50
2022-07-25T21:48:54.301Z,1.00
2022-07-25T21:51:23.176Z,1.00
2022-07-25T21:53:52.250Z,1.50
2022-07-25T21:56:21.893Z,1.50
2022-07-25T21:58:49.082Z,1.00
2022-07-25T22:01:16.414Z,1.00
2022-07-25T22:03:43.205Z,1.00
2022-07-25T22:06:10.356Z,2.75
2022-07-25T22:08:37.416Z,3.00
2022-07-25T22:11:15.836Z,1.00
2022-07-25T22:13:51.292Z,0.25
2022-07-25T22:16:18.062Z,2.00
2022-07-25T22:18:44.769Z,2.00
2022-07-25T22:21:11.578Z,2.00
2022-07-25T22:23:42.446Z,2.00
2022-07-25T22:26:09.141Z,1.00
2022-07-25T22:28:35.827Z,1.00
2022-07-25T22:31:02.566Z,4.00
2022-07-25T22:33:31.104Z,1.00
2022-07-25T22:35:57.826Z,2.00
2022-07-25T22:38:24.571Z,2.75
2022-07-25T22:40:51.344Z,2.50
2022-07-25T22:43:18.125Z,3.00
2022-07-25T22:45:45.941Z,2.00
2022-07-25T22:48:12.671Z,2.00
2022-07-25T22:50:39.491Z,2.00
2022-07-25T22:53:06.733Z,3.00
2022-07-25T22:55:33.442Z,2.00
2022-07-25T22:58:00.134Z,2.25
2022-07-25T23:00:26.872Z,2.00
2022-07-25T23:02:53.711Z,2.00
2022-07-25T23:05:20.455Z,2.00
2022-07-25T23:07:47.176Z,3.50
2022-07-25T23:10:15.241Z,2.00
2022-07-25T23:12:42.151Z,3.00
2022-07-25T23:15:09.368Z,2.00
2022-07-25T23:17:36.134Z,3.75
2022-07-25T23:20:03.486Z,2.00
2022-07-25T23:22:30.272Z,2.00
2022-07-25T23:24:58.616Z,3.00
2022-07-25T23:27:25.863Z,3.00
2022-07-25T23:29:53.239Z,2.25
2022-07-25T23:32:19.998Z,2.25
2022-07-25T23:34:47.224Z,4.00
2022-07-25T23:37:14.216Z,4.25
2022-07-25T23:39:40.881Z,5.75
2022-07-25T23:42:07.683Z,2.50
2022-07-25T23:44:34.351Z,3.00
2022-07-25T23:47:03.535Z,3.50
2022-07-25T23:49:31.662Z,2.75
2022-07-25T23:51:58.678Z,3.50
2022-07-25T23:54:25.718Z,4.50
2022-07-25T23:56:53.268Z,3.25
2022-07-25T23:59:20.223Z,3.50
